createdAt,value
2018-01-01T00:00:28.619Z,9.30
2018-01-01T00:02:54.730Z,9.30
2018-01-01T00:05:20.982Z,9.30
2018-01-01T00:07:47.250Z,9.20
2018-01-01T00:10:13.448Z,9.20
2018-01-01T00:12:39.683Z,9.20
2018-01-01T00:15:05.863Z,9.20
2018-01-01T00:17:32.828Z,9.00
2018-01-01T00:19:58.985Z,9.00
2018-01-01T00:22:25.197Z,9.10
2018-01-01T00:24:51.338Z,9.10
2018-01-01T00:27:17.549Z,9.00
2018-01-01T00:29:43.785Z,9.00
2018-01-01T00:32:09.957Z,9.00
2018-01-01T00:34:36.801Z,9.00
2018-01-01T00:37:03.732Z,9.00
2018-01-01T00:39:29.862Z,9.00
2018-01-01T00:41:56.771Z,9.00
2018-01-01T00:44:23.122Z,9.00
2018-01-01T00:46:49.348Z,8.90
2018-01-01T00:49:15.508Z,8.80
2018-01-01T00:51:41.730Z,8.80
2018-01-01T00:54:07.976Z,8.80
2018-01-01T00:56:34.096Z,8.70
2018-01-01T00:59:00.258Z,8.80
2018-01-01T01:01:26.498Z,8.80
2018-01-01T01:03:52.690Z,8.70
2018-01-01T01:06:18.848Z,8.70
2018-01-01T01:08:44.997Z,8.70
2018-01-01T01:11:11.885Z,8.70
2018-01-01T01:13:38.061Z,8.70
2018-01-01T01:16:04.198Z,8.70
2018-01-01T01:18:31.108Z,8.60
2018-01-01T01:20:57.326Z,8.60
2018-01-01T01:23:23.549Z,8.60
2018-01-01T01:25:49.741Z,8.60
2018-01-01T01:28:15.908Z,8.60
2018-01-01T01:30:42.238Z,8.70
2018-01-01T01:33:08.455Z,8.70
2018-01-01T01:35:34.675Z,8.60
2018-01-01T01:38:00.925Z,8.60
2018-01-01T01:40:27.173Z,8.60
2018-01-01T01:42:53.328Z,8.50
2018-01-01T01:45:19.583Z,8.60
2018-01-01T01:47:45.722Z,8.60
2018-01-01T01:50:11.907Z,8.60
2018-01-01T01:52:38.044Z,8.70
2018-01-01T01:55:04.181Z,8.60
2018-01-01T01:57:30.363Z,8.60
2018-01-01T01:59:57.279Z,8.50
2018-01-01T02:02:23.630Z,8.50
2018-01-01T02:04:50.711Z,8.30
2018-01-01T02:07:16.937Z,8.30
2018-01-01T02:09:43.219Z,8.20
2018-01-01T02:12:09.410Z,8.30
2018-01-01T02:14:35.570Z,8.30
2018-01-01T02:17:01.758Z,8.30
2018-01-01T02:19:27.919Z,8.30
2018-01-01T02:21:54.112Z,8.40
2018-01-01T02:24:20.315Z,8.40
2018-01-01T02:26:46.517Z,8.40
2018-01-01T02:29:13.438Z,8.30
2018-01-01T02:31:39.598Z,8.30
2018-01-01T02:34:06.686Z,8.30
2018-01-01T02:36:32.809Z,8.30
2018-01-01T02:38:58.951Z,8.30
2018-01-01T02:41:25.150Z,8.30
2018-01-01T02:43:51.295Z,8.30
2018-01-01T02:46:17.494Z,8.40
2018-01-01T02:48:43.708Z,8.30
2018-01-01T02:51:09.951Z,8.40
2018-01-01T02:53:36.174Z,8.40
2018-01-01T02:56:02.336Z,8.40
2018-01-01T02:58:28.536Z,8.40
2018-01-01T03:00:54.680Z,8.30
2018-01-01T03:03:21.028Z,8.30
2018-01-01T03:05:47.209Z,8.30
2018-01-01T03:08:13.385Z,8.40
2018-01-01T03:10:39.604Z,8.30
2018-01-01T03:13:05.714Z,8.30
2018-01-01T03:15:31.854Z,8.20
2018-01-01T03:17:58.006Z,8.20
2018-01-01T03:20:24.950Z,8.10
2018-01-01T03:22:51.823Z,8.10
2018-01-01T03:25:17.980Z,8.10
2018-01-01T03:27:44.114Z,8.10
2018-01-01T03:30:10.281Z,8.10
2018-01-01T03:32:36.438Z,8.00
2018-01-01T03:35:02.565Z,8.00
2018-01-01T03:37:28.721Z,8.00
2018-01-01T03:39:54.864Z,7.90
2018-01-01T03:42:21.765Z,7.90
2018-01-01T03:44:47.897Z,7.90
2018-01-01T03:47:14.135Z,7.90
2018-01-01T03:49:40.287Z,7.90
2018-01-01T03:52:07.259Z,8.00
2018-01-01T03:54:33.449Z,7.90
2018-01-01T03:57:00.348Z,7.90
2018-01-01T03:59:26.518Z,7.90
2018-01-01T04:01:53.523Z,7.90
2018-01-01T04:04:19.654Z,7.90
2018-01-01T04:06:45.777Z,7.80
2018-01-01T04:09:12.002Z,7.80
2018-01-01T04:11:38.178Z,7.80
2018-01-01T04:14:05.289Z,7.70
2018-01-01T04:16:31.450Z,7.70
2018-01-01T04:18:57.604Z,7.70
2018-01-01T04:21:23.809Z,7.70
2018-01-01T04:23:50.044Z,7.60
2018-01-01T04:26:16.211Z,7.60
2018-01-01T04:28:42.361Z,7.60
2018-01-01T04:31:09.297Z,7.60
2018-01-01T04:33:35.524Z,7.60
2018-01-01T04:36:01.710Z,7.50
2018-01-01T04:38:27.877Z,7.50
2018-01-01T04:40:54.113Z,7.50
2018-01-01T04:43:20.713Z,7.50
2018-01-01T04:45:46.825Z,7.50
2018-01-01T04:48:13.008Z,7.50
2018-01-01T04:50:39.971Z,7.60
2018-01-01T04:53:06.263Z,7.50
2018-01-01T04:55:32.480Z,7.50
2018-01-01T04:57:58.783Z,7.50
2018-01-01T05:00:25.035Z,7.50
2018-01-01T05:02:51.261Z,7.40
2018-01-01T05:05:17.428Z,7.40
2018-01-01T05:07:43.614Z,7.30
2018-01-01T05:10:09.827Z,7.30
2018-01-01T05:12:36.115Z,7.30
2018-01-01T05:15:02.338Z,7.20
2018-01-01T05:17:28.518Z,7.20
2018-01-01T05:19:55.136Z,7.10
2018-01-01T05:22:21.295Z,7.10
2018-01-01T05:24:47.427Z,7.10
2018-01-01T05:27:14.420Z,7.20
2018-01-01T05:29:40.579Z,7.20
2018-01-01T05:32:06.808Z,7.20
2018-01-01T05:34:32.940Z,7.20
2018-01-01T05:36:59.168Z,7.20
2018-01-01T05:39:26.084Z,7.10
2018-01-01T05:41:52.751Z,7.10
2018-01-01T05:44:19.694Z,7.10
2018-01-01T05:46:46.567Z,7.10
2018-01-01T05:49:12.777Z,7.10
2018-01-01T05:51:39.717Z,7.00
2018-01-01T05:54:06.671Z,7.00
2018-01-01T05:56:32.887Z,7.00
2018-01-01T05:59:00.027Z,6.80
2018-01-01T06:01:27.042Z,6.60
2018-01-01T06:03:53.489Z,6.60
2018-01-01T06:06:19.812Z,6.50
2018-01-01T06:08:46.008Z,6.40
2018-01-01T06:11:12.303Z,6.20
2018-01-01T06:13:39.225Z,5.80
2018-01-01T06:16:05.467Z,5.80
2018-01-01T06:18:32.394Z,5.30
2018-01-01T06:20:58.574Z,5.30
2018-01-01T06:23:24.715Z,5.10
2018-01-01T06:25:50.960Z,5.00
2018-01-01T06:28:17.146Z,4.90
2018-01-01T06:30:43.301Z,4.80
2018-01-01T06:33:09.574Z,4.80
2018-01-01T06:35:36.455Z,4.70
2018-01-01T06:38:02.614Z,4.70
2018-01-01T06:40:29.546Z,4.70
2018-01-01T06:42:55.954Z,4.70
2018-01-01T06:45:22.084Z,4.60
2018-01-01T06:47:48.228Z,4.60
2018-01-01T06:50:14.378Z,4.50
2018-01-01T06:52:41.241Z,4.40
2018-01-01T06:55:07.386Z,4.40
2018-01-01T06:57:33.599Z,4.40
2018-01-01T07:00:00.456Z,4.30
2018-01-01T07:02:26.723Z,4.30
2018-01-01T07:04:52.968Z,4.30
2018-01-01T07:07:19.868Z,4.30
2018-01-01T07:09:46.118Z,4.30
2018-01-01T07:12:12.238Z,4.30
2018-01-01T07:14:38.494Z,4.20
2018-01-01T07:17:05.458Z,4.20
2018-01-01T07:19:31.669Z,4.20
2018-01-01T07:21:58.643Z,4.20
2018-01-01T07:24:24.833Z,4.20
2018-01-01T07:26:51.768Z,4.20
2018-01-01T07:29:18.759Z,4.20
2018-01-01T07:31:44.958Z,4.20
2018-01-01T07:34:11.855Z,4.30
2018-01-01T07:36:38.772Z,4.30
2018-01-01T07:39:04.937Z,4.30
2018-01-01T07:41:31.944Z,4.30
2018-01-01T07:43:58.160Z,4.30
2018-01-01T07:46:24.399Z,4.30
2018-01-01T07:48:50.630Z,4.30
2018-01-01T07:51:16.746Z,4.40
2018-01-01T07:53:43.060Z,4.40
2018-01-01T07:56:09.273Z,4.40
2018-01-01T07:58:36.171Z,4.50
2018-01-01T08:01:03.067Z,4.50
2018-01-01T08:03:29.288Z,4.50
2018-01-01T08:05:56.298Z,4.60
2018-01-01T08:08:22.442Z,4.60
2018-01-01T08:10:48.656Z,4.70
2018-01-01T08:13:14.815Z,4.60
2018-01-01T08:15:41.705Z,4.70
2018-01-01T08:18:08.040Z,4.70
2018-01-01T08:20:34.216Z,4.70
2018-01-01T08:23:00.574Z,4.70
2018-01-01T08:25:26.879Z,4.80
2018-01-01T08:27:53.091Z,4.80
2018-01-01T08:30:20.010Z,4.90
2018-01-01T08:32:46.268Z,4.90
2018-01-01T08:35:12.373Z,5.00
2018-01-01T08:37:39.403Z,5.10
2018-01-01T08:40:05.506Z,5.10
2018-01-01T08:42:31.723Z,5.10
2018-01-01T08:44:57.914Z,5.10
2018-01-01T08:47:24.181Z,5.10
2018-01-01T08:49:50.410Z,5.10
2018-01-01T08:52:16.646Z,5.10
2018-01-01T08:54:42.798Z,5.10
2018-01-01T08:57:08.922Z,5.10
2018-01-01T08:59:35.949Z,5.00
2018-01-01T09:02:02.172Z,5.00
2018-01-01T09:04:28.396Z,5.00
2018-01-01T09:06:54.641Z,4.90
2018-01-01T09:09:20.934Z,4.90
2018-01-01T09:11:47.202Z,4.80
2018-01-01T09:14:13.494Z,4.80
2018-01-01T09:16:39.813Z,4.80
2018-01-01T09:19:06.025Z,4.70
2018-01-01T09:21:32.274Z,4.80
2018-01-01T09:23:58.380Z,4.80
2018-01-01T09:26:24.574Z,4.70
2018-01-01T09:28:51.442Z,4.80
2018-01-01T09:31:17.654Z,4.90
2018-01-01T09:33:44.554Z,4.90
2018-01-01T09:36:10.721Z,4.90
2018-01-01T09:38:37.015Z,4.90
2018-01-01T09:41:03.180Z,4.90
2018-01-01T09:43:29.632Z,5.00
2018-01-01T09:45:55.773Z,5.00
2018-01-01T09:48:21.988Z,5.00
2018-01-01T09:50:48.170Z,5.00
2018-01-01T09:53:15.098Z,5.10
2018-01-01T09:55:41.331Z,5.10
2018-01-01T09:58:07.522Z,5.10
2018-01-01T10:00:33.806Z,5.20
2018-01-01T10:03:01.902Z,5.40
2018-01-01T10:05:28.294Z,5.40
2018-01-01T10:07:55.380Z,5.70
2018-01-01T10:10:21.626Z,5.70
2018-01-01T10:12:47.894Z,5.70
2018-01-01T10:15:15.086Z,5.80
2018-01-01T10:17:41.298Z,5.80
2018-01-01T10:20:08.092Z,5.80
2018-01-01T10:22:34.290Z,5.80
2018-01-01T10:25:00.521Z,5.90
2018-01-01T10:27:26.966Z,5.90
2018-01-01T10:29:53.192Z,5.80
2018-01-01T10:32:19.496Z,5.70
2018-01-01T10:34:45.796Z,5.70
2018-01-01T10:37:12.624Z,5.80
2018-01-01T10:39:39.561Z,5.80
2018-01-01T10:42:06.555Z,5.90
2018-01-01T10:44:32.755Z,5.90
2018-01-01T10:46:58.885Z,6.00
2018-01-01T10:49:25.049Z,6.00
2018-01-01T10:51:51.224Z,6.00
2018-01-01T10:54:18.176Z,6.00
2018-01-01T10:56:44.409Z,6.00
2018-01-01T10:59:10.594Z,5.80
2018-01-01T11:01:36.734Z,5.70
2018-01-01T11:04:03.775Z,5.70
2018-01-01T11:06:29.947Z,5.70
2018-01-01T11:08:56.308Z,5.60
2018-01-01T11:11:22.772Z,5.70
2018-01-01T11:13:49.730Z,5.80
2018-01-01T11:16:16.017Z,5.80
2018-01-01T11:18:43.978Z,5.90
2018-01-01T11:21:10.238Z,5.90
2018-01-01T11:23:37.231Z,5.90
2018-01-01T11:26:03.349Z,5.90
2018-01-01T11:28:29.496Z,5.90
2018-01-01T11:30:55.879Z,5.90
2018-01-01T11:33:22.153Z,5.90
2018-01-01T11:35:48.417Z,5.90
2018-01-01T11:38:15.438Z,5.70
2018-01-01T11:40:41.778Z,5.70
2018-01-01T11:43:08.132Z,5.70
2018-01-01T11:45:34.519Z,5.70
2018-01-01T11:48:00.688Z,5.70
2018-01-01T11:50:26.956Z,5.60
2018-01-01T11:52:53.522Z,5.60
2018-01-01T11:55:19.746Z,5.60
2018-01-01T11:57:45.993Z,5.60
2018-01-01T12:00:13.032Z,5.60
2018-01-01T12:02:41.017Z,5.70
2018-01-01T12:05:08.134Z,5.80
2018-01-01T12:07:34.401Z,5.80
2018-01-01T12:10:01.549Z,5.90
2018-01-01T12:12:27.845Z,6.00
2018-01-01T12:14:54.006Z,5.90
2018-01-01T12:17:20.350Z,5.90
2018-01-01T12:19:46.563Z,5.90
2018-01-01T12:22:12.809Z,5.80
2018-01-01T12:24:39.022Z,5.80
2018-01-01T12:27:05.350Z,5.80
2018-01-01T12:29:31.749Z,5.90
2018-01-01T12:31:58.775Z,5.80
2018-01-01T12:34:24.963Z,5.80
2018-01-01T12:36:51.148Z,5.80
2018-01-01T12:39:17.453Z,5.80
2018-01-01T12:41:43.602Z,5.70
2018-01-01T12:44:10.548Z,5.40
2018-01-01T12:46:37.473Z,5.40
2018-01-01T12:49:03.636Z,5.40
2018-01-01T12:51:29.936Z,5.30
2018-01-01T12:53:56.453Z,5.30
2018-01-01T12:56:23.570Z,5.30
2018-01-01T12:58:49.848Z,5.30
2018-01-01T13:01:16.045Z,5.30
2018-01-01T13:03:42.373Z,5.40
2018-01-01T13:06:08.795Z,5.40
2018-01-01T13:08:35.064Z,5.40
2018-01-01T13:11:01.378Z,5.40
2018-01-01T13:13:27.641Z,5.50
2018-01-01T13:15:54.669Z,5.50
2018-01-01T13:18:21.937Z,5.50
2018-01-01T13:20:49.055Z,5.40
2018-01-01T13:23:15.587Z,5.40
2018-01-01T13:25:41.698Z,5.30
2018-01-01T13:28:07.891Z,5.20
2018-01-01T13:30:34.120Z,5.10
2018-01-01T13:33:00.499Z,5.10
2018-01-01T13:35:26.682Z,5.00
2018-01-01T13:37:52.893Z,5.00
2018-01-01T13:40:19.074Z,4.90
2018-01-01T13:42:45.269Z,4.90
2018-01-01T13:45:11.491Z,4.80
2018-01-01T13:47:37.677Z,4.70
2018-01-01T13:50:04.680Z,4.80
2018-01-01T13:52:30.851Z,4.70
2018-01-01T13:54:57.854Z,4.80
2018-01-01T13:57:24.062Z,4.80
2018-01-01T13:59:50.190Z,4.80
2018-01-01T14:02:16.421Z,4.80
2018-01-01T14:04:42.733Z,4.80
2018-01-01T14:07:09.018Z,4.80
2018-01-01T14:09:36.085Z,4.70
2018-01-01T14:12:02.260Z,4.70
2018-01-01T14:14:28.506Z,4.70
2018-01-01T14:16:54.603Z,4.60
2018-01-01T14:19:21.541Z,4.50
2018-01-01T14:21:47.684Z,4.50
2018-01-01T14:24:13.884Z,4.50
2018-01-01T14:26:40.046Z,4.50
2018-01-01T14:29:06.293Z,4.50
2018-01-01T14:31:33.188Z,4.40
2018-01-01T14:33:59.439Z,4.40
2018-01-01T14:36:25.624Z,4.40
2018-01-01T14:38:51.760Z,4.40
2018-01-01T14:41:17.916Z,4.40
2018-01-01T14:43:44.203Z,4.50
2018-01-01T14:46:10.438Z,4.50
2018-01-01T14:48:36.640Z,4.50
2018-01-01T14:51:02.888Z,4.40
2018-01-01T14:53:29.075Z,4.40
2018-01-01T14:55:56.037Z,4.20
2018-01-01T14:58:22.200Z,4.20
2018-01-01T15:00:48.478Z,4.20
2018-01-01T15:03:14.677Z,4.10
2018-01-01T15:05:41.026Z,4.10
2018-01-01T15:08:08.097Z,4.10
2018-01-01T15:10:34.950Z,4.00
2018-01-01T15:13:01.288Z,4.10
2018-01-01T15:15:27.422Z,4.10
2018-01-01T15:17:53.638Z,4.10
2018-01-01T15:20:19.889Z,4.10
2018-01-01T15:22:46.227Z,4.10
2018-01-01T15:25:12.395Z,4.20
2018-01-01T15:27:39.719Z,4.30
2018-01-01T15:30:05.914Z,4.30
2018-01-01T15:32:32.147Z,4.30
2018-01-01T15:34:58.291Z,4.40
2018-01-01T15:37:24.488Z,4.40
2018-01-01T15:39:50.836Z,4.40
2018-01-01T15:42:16.986Z,4.30
2018-01-01T15:44:43.846Z,4.30
2018-01-01T15:47:10.061Z,4.30
2018-01-01T15:49:37.958Z,4.10
2018-01-01T15:52:04.747Z,4.00
2018-01-01T15:54:30.877Z,4.00
2018-01-01T15:56:57.185Z,4.00
2018-01-01T15:59:23.455Z,3.90
2018-01-01T16:01:50.418Z,3.90
2018-01-01T16:04:16.711Z,3.90
2018-01-01T16:06:42.923Z,3.90
2018-01-01T16:09:09.189Z,3.90
2018-01-01T16:11:35.363Z,3.80
2018-01-01T16:14:01.647Z,3.70
2018-01-01T16:16:27.854Z,3.60
2018-01-01T16:18:54.743Z,3.60
2018-01-01T16:21:20.967Z,3.60
2018-01-01T16:23:47.179Z,3.60
2018-01-01T16:26:13.396Z,3.50
2018-01-01T16:28:39.648Z,3.50
2018-01-01T16:31:05.876Z,3.50
2018-01-01T16:33:32.037Z,3.60
2018-01-01T16:35:58.248Z,3.70
2018-01-01T16:38:24.605Z,3.80
2018-01-01T16:40:51.550Z,3.80
2018-01-01T16:43:18.457Z,3.90
2018-01-01T16:45:44.604Z,3.80
2018-01-01T16:48:10.809Z,4.00
2018-01-01T16:50:37.008Z,4.10
2018-01-01T16:53:03.182Z,4.20
2018-01-01T16:55:29.397Z,4.10
2018-01-01T16:57:55.621Z,4.10
2018-01-01T17:00:21.813Z,4.10
2018-01-01T17:02:48.055Z,4.10
2018-01-01T17:05:14.408Z,4.10
2018-01-01T17:07:40.677Z,4.10
2018-01-01T17:10:06.860Z,4.10
2018-01-01T17:12:33.103Z,4.20
2018-01-01T17:14:59.328Z,4.20
2018-01-01T17:17:25.551Z,4.20
2018-01-01T17:19:51.682Z,4.20
2018-01-01T17:22:17.821Z,4.30
2018-01-01T17:24:44.781Z,4.30
2018-01-01T17:27:11.053Z,4.30
2018-01-01T17:29:37.293Z,4.40
2018-01-01T17:32:03.463Z,4.40
2018-01-01T17:34:29.677Z,4.60
2018-01-01T17:36:56.565Z,4.60
2018-01-01T17:39:22.729Z,4.60
2018-01-01T17:41:50.171Z,4.40
2018-01-01T17:44:16.391Z,4.40
2018-01-01T17:46:42.540Z,4.40
2018-01-01T17:49:09.557Z,4.40
2018-01-01T17:51:35.791Z,4.40
2018-01-01T17:54:02.129Z,4.40
2018-01-01T17:56:28.308Z,4.30
2018-01-01T17:58:54.502Z,4.40
2018-01-01T18:01:21.475Z,4.30
2018-01-01T18:03:47.759Z,4.30
2018-01-01T18:06:13.970Z,4.30
2018-01-01T18:08:40.176Z,4.20
2018-01-01T18:11:06.314Z,4.20
2018-01-01T18:13:32.560Z,4.30
2018-01-01T18:15:58.670Z,4.30
2018-01-01T18:18:24.874Z,4.30
2018-01-01T18:20:51.045Z,4.30
2018-01-01T18:23:18.115Z,4.30
2018-01-01T18:25:44.353Z,4.30
2018-01-01T18:28:10.494Z,4.30
2018-01-01T18:30:37.004Z,4.30
2018-01-01T18:33:04.222Z,4.40
2018-01-01T18:35:31.177Z,4.40
2018-01-01T18:37:58.110Z,4.30
2018-01-01T18:40:25.146Z,4.30
2018-01-01T18:42:51.391Z,4.30
2018-01-01T18:45:18.288Z,4.30
2018-01-01T18:47:44.515Z,4.30
2018-01-01T18:50:10.719Z,4.30
2018-01-01T18:52:36.995Z,4.30
2018-01-01T18:55:03.231Z,4.30
2018-01-01T18:57:29.420Z,4.30
2018-01-01T18:59:55.602Z,4.30
2018-01-01T19:02:22.506Z,4.30
2018-01-01T19:04:48.650Z,4.30
2018-01-01T19:07:14.783Z,4.40
2018-01-01T19:09:41.637Z,4.40
2018-01-01T19:12:07.875Z,4.40
2018-01-01T19:14:34.033Z,4.30
2018-01-01T19:17:00.260Z,4.30
2018-01-01T19:19:27.113Z,4.20
2018-01-01T19:21:53.383Z,4.20
2018-01-01T19:24:19.561Z,4.20
2018-01-01T19:26:45.768Z,4.20
2018-01-01T19:29:11.941Z,4.10
2018-01-01T19:31:38.132Z,4.10
2018-01-01T19:34:04.313Z,4.10
2018-01-01T19:36:31.286Z,4.00
2018-01-01T19:38:57.487Z,4.00
2018-01-01T19:41:24.445Z,3.90
2018-01-01T19:43:50.677Z,3.90
2018-01-01T19:46:16.893Z,3.80
2018-01-01T19:48:43.131Z,3.80
2018-01-01T19:51:10.744Z,3.80
2018-01-01T19:53:37.085Z,3.70
2018-01-01T19:56:04.065Z,3.60
2018-01-01T19:58:30.349Z,3.60
2018-01-01T20:00:57.303Z,3.50
2018-01-01T20:03:24.365Z,3.60
2018-01-01T20:05:50.688Z,3.50
2018-01-01T20:08:17.666Z,3.60
2018-01-01T20:10:43.912Z,3.60
2018-01-01T20:13:10.131Z,3.60
2018-01-01T20:15:37.277Z,3.60
2018-01-01T20:18:03.417Z,3.60
2018-01-01T20:20:29.618Z,3.60
2018-01-01T20:22:55.719Z,3.50
2018-01-01T20:25:21.967Z,3.50
2018-01-01T20:27:48.091Z,3.50
2018-01-01T20:30:14.385Z,3.50
2018-01-01T20:32:41.354Z,3.50
2018-01-01T20:35:07.605Z,3.50
2018-01-01T20:37:33.760Z,3.50
2018-01-01T20:40:00.070Z,3.50
2018-01-01T20:42:26.385Z,3.50
2018-01-01T20:44:52.677Z,3.50
2018-01-01T20:47:18.892Z,3.40
2018-01-01T20:49:45.848Z,3.50
2018-01-01T20:52:12.019Z,3.40
2018-01-01T20:54:38.178Z,3.50
2018-01-01T20:57:05.119Z,3.50
2018-01-01T20:59:32.067Z,3.50
2018-01-01T21:01:59.063Z,3.50
2018-01-01T21:04:25.248Z,3.50
2018-01-01T21:06:52.244Z,3.50
2018-01-01T21:09:18.373Z,3.50
2018-01-01T21:11:44.557Z,3.50
2018-01-01T21:14:10.712Z,3.50
2018-01-01T21:16:36.914Z,3.50
2018-01-01T21:19:03.108Z,3.40
2018-01-01T21:21:30.101Z,3.40
2018-01-01T21:23:56.702Z,3.40
2018-01-01T21:26:23.612Z,3.50
2018-01-01T21:28:49.820Z,3.40
2018-01-01T21:31:16.026Z,3.50
2018-01-01T21:33:42.886Z,3.40
2018-01-01T21:36:09.081Z,3.50
2018-01-01T21:38:36.126Z,3.50
2018-01-01T21:41:02.272Z,3.50
2018-01-01T21:43:28.517Z,3.40
2018-01-01T21:45:54.709Z,3.40
2018-01-01T21:48:20.916Z,3.50
2018-01-01T21:50:47.743Z,3.50
2018-01-01T21:53:13.923Z,3.40
2018-01-01T21:55:40.125Z,3.50
2018-01-01T21:58:06.299Z,3.50
2018-01-01T22:00:32.606Z,3.50
2018-01-01T22:02:58.841Z,3.40
2018-01-01T22:05:25.139Z,3.40
2018-01-01T22:07:51.440Z,3.40
2018-01-01T22:10:18.425Z,3.40
2018-01-01T22:12:44.611Z,3.40
2018-01-01T22:15:11.549Z,3.40
2018-01-01T22:17:38.503Z,3.40
2018-01-01T22:20:04.699Z,3.40
2018-01-01T22:22:30.920Z,3.40
2018-01-01T22:24:57.152Z,3.40
2018-01-01T22:27:24.252Z,3.40
2018-01-01T22:29:50.440Z,3.40
2018-01-01T22:32:17.450Z,3.40
2018-01-01T22:34:43.593Z,3.40
2018-01-01T22:37:09.784Z,3.40
2018-01-01T22:39:35.918Z,3.40
2018-01-01T22:42:02.110Z,3.30
2018-01-01T22:44:28.224Z,3.30
2018-01-01T22:46:55.171Z,3.30
2018-01-01T22:49:22.121Z,3.40
2018-01-01T22:51:48.792Z,3.30
2018-01-01T22:54:15.012Z,3.30
2018-01-01T22:56:41.342Z,3.40
2018-01-01T22:59:07.497Z,3.40
2018-01-01T23:01:33.822Z,3.40
2018-01-01T23:04:00.034Z,3.40
2018-01-01T23:06:26.454Z,3.40
2018-01-01T23:08:52.764Z,3.40
2018-01-01T23:11:19.071Z,3.30
2018-01-01T23:13:45.343Z,3.30
2018-01-01T23:16:11.560Z,3.40
2018-01-01T23:18:37.703Z,3.40
2018-01-01T23:21:04.612Z,3.30
2018-01-01T23:23:30.914Z,3.30
2018-01-01T23:25:57.904Z,3.40
2018-01-01T23:28:24.086Z,3.40
2018-01-01T23:30:51.048Z,3.40
2018-01-01T23:33:17.196Z,3.40
2018-01-01T23:35:43.422Z,3.50
2018-01-01T23:38:09.669Z,3.60
2018-01-01T23:40:35.913Z,3.50
2018-01-01T23:43:02.201Z,3.60
2018-01-01T23:45:28.496Z,3.60
2018-01-01T23:47:55.386Z,3.60
2018-01-01T23:50:21.544Z,3.60
2018-01-01T23:52:48.000Z,3.60
2018-01-01T23:55:15.078Z,3.60
2018-01-01T23:57:41.205Z,3.60
